createdAt,value
2023-02-24T00:03:45.130Z,2.05
2023-02-24T00:08:47.432Z,2.50
2023-02-24T00:13:49.047Z,1.10
2023-02-24T00:18:51.194Z,1.10
2023-02-24T00:23:53.704Z,1.50
2023-02-24T00:29:03.695Z,1.13
2023-02-24T00:34:07.154Z,0.90
2023-02-24T00:39:10.264Z,1.33
2023-02-24T00:44:14.784Z,3.67
2023-02-24T00:49:19.689Z,0.95
2023-02-24T00:54:21.628Z,1.00
2023-02-24T00:59:26.192Z,0.98
2023-02-24T01:04:29.387Z,1.17
2023-02-24T01:09:32.457Z,1.25
2023-02-24T01:14:36.150Z,0.80
2023-02-24T01:19:39.106Z,0.70
2023-02-24T01:24:43.306Z,1.25
2023-02-24T01:29:46.778Z,0.80
2023-02-24T01:34:52.198Z,0.73
2023-02-24T01:39:54.327Z,1.50
2023-02-24T01:45:06.144Z,1.02
2023-02-24T01:50:09.906Z,1.40
2023-02-24T01:55:20.163Z,0.80
2023-02-24T02:00:38.107Z,0.82
2023-02-24T02:05:41.687Z,1.00
2023-02-24T02:10:46.788Z,0.93
2023-02-24T02:16:13.717Z,1.40
2023-02-24T02:21:36.886Z,1.30
2023-02-24T02:27:06.858Z,0.85
2023-02-24T02:32:38.340Z,0.97
2023-02-24T02:37:50.485Z,1.17
2023-02-24T02:43:15.826Z,1.00
2023-02-24T02:48:25.733Z,1.10
2023-02-24T02:53:39.724Z,0.75
2023-02-24T02:58:47.828Z,1.00
2023-02-24T03:03:56.779Z,1.10
2023-02-24T03:09:15.910Z,0.80
2023-02-24T03:14:24.017Z,0.68
2023-02-24T03:19:37.860Z,1.42
2023-02-24T03:24:41.252Z,0.73
2023-02-24T03:29:56.642Z,1.15
2023-02-24T03:35:08.598Z,1.00
2023-02-24T03:40:16.282Z,1.00
2023-02-24T03:45:22.632Z,1.35
2023-02-24T03:50:26.976Z,2.15
2023-02-24T03:55:59.590Z,1.43
2023-02-24T04:01:16.121Z,1.17
2023-02-24T04:06:31.787Z,1.52
2023-02-24T04:11:42.905Z,1.75
2023-02-24T04:17:03.800Z,2.10
2023-02-24T04:22:10.548Z,2.70
2023-02-24T04:27:15.657Z,2.97
2023-02-24T04:32:22.490Z,2.70
2023-02-24T04:37:24.870Z,2.30
2023-02-24T04:42:27.446Z,2.33
2023-02-24T04:47:29.326Z,2.83
2023-02-24T04:52:30.998Z,2.67
2023-02-24T04:57:37.607Z,2.72
2023-02-24T05:02:39.322Z,3.03
2023-02-24T05:07:40.997Z,2.38
2023-02-24T05:12:43.076Z,2.70
2023-02-24T05:17:44.686Z,2.28
2023-02-24T05:22:51.853Z,4.90
2023-02-24T05:27:53.566Z,2.75
2023-02-24T05:32:56.344Z,3.17
2023-02-24T05:37:59.212Z,1.88
2023-02-24T05:43:04.695Z,2.72
2023-02-24T05:48:06.294Z,2.40
2023-02-24T05:53:09.610Z,2.67
2023-02-24T05:58:11.387Z,2.47
2023-02-24T06:03:17.529Z,2.83
2023-02-24T06:08:19.506Z,3.78
2023-02-24T06:13:21.135Z,3.10
2023-02-24T06:18:22.737Z,2.58
2023-02-24T06:23:26.768Z,2.30
2023-02-24T06:28:28.437Z,2.55
2023-02-24T06:33:31.222Z,3.08
2023-02-24T06:38:34.616Z,2.65
2023-02-24T06:43:45.162Z,2.90
2023-02-24T06:48:48.159Z,3.08
2023-02-24T06:53:52.321Z,2.83
2023-02-24T06:58:55.913Z,2.50
2023-02-24T07:04:07.877Z,3.17
2023-02-24T07:09:15.096Z,2.85
2023-02-24T07:14:16.740Z,2.75
2023-02-24T07:19:20.084Z,3.25
2023-02-24T07:24:25.828Z,3.20
2023-02-24T07:29:30.463Z,3.85
2023-02-24T07:34:33.773Z,2.90
2023-02-24T07:39:37.529Z,3.50
2023-02-24T07:44:39.462Z,2.85
2023-02-24T07:49:41.266Z,3.13
2023-02-24T07:54:43.312Z,2.90
2023-02-24T07:59:45.275Z,3.22
2023-02-24T08:04:51.566Z,2.63
2023-02-24T08:10:12.083Z,2.97
2023-02-24T08:20:52.028Z,2.75
2023-02-24T08:25:53.899Z,3.03
2023-02-24T08:30:55.746Z,2.90
2023-02-24T08:36:02.192Z,3.15
2023-02-24T08:41:05.061Z,3.70
2023-02-24T08:46:13.394Z,4.25
2023-02-24T08:51:28.798Z,4.43
2023-02-24T08:56:34.589Z,4.50
2023-02-24T09:01:40.243Z,4.72
2023-02-24T09:06:53.826Z,5.60
2023-02-24T09:11:58.974Z,6.15
2023-02-24T09:17:03.485Z,9.00
2023-02-24T09:22:21.116Z,7.50
2023-02-24T09:27:29.275Z,8.13
2023-02-24T09:32:31.101Z,8.45
2023-02-24T09:37:32.860Z,9.00
2023-02-24T09:42:46.414Z,8.27
2023-02-24T09:47:54.816Z,9.35
2023-02-24T09:53:13.971Z,7.85
2023-02-24T09:58:58.719Z,8.85
2023-02-24T10:04:20.258Z,8.13
2023-02-24T10:09:40.725Z,7.80
2023-02-24T10:15:18.713Z,7.20
2023-02-24T10:20:39.306Z,7.70
2023-02-24T10:25:55.628Z,6.43
2023-02-24T10:31:25.075Z,4.28
2023-02-24T10:36:35.339Z,3.33
2023-02-24T10:41:47.008Z,5.38
2023-02-24T10:47:11.889Z,3.65
2023-02-24T10:52:33.457Z,3.30
2023-02-24T10:57:58.514Z,3.45
2023-02-24T11:03:10.656Z,3.13
2023-02-24T11:08:15.827Z,3.38
2023-02-24T11:13:36.105Z,3.47
2023-02-24T11:18:39.591Z,3.63
2023-02-24T11:23:50.106Z,1.23
2023-02-24T11:29:30.560Z,3.30
2023-02-24T11:34:59.559Z,2.77
2023-02-24T11:40:09.470Z,4.35
2023-02-24T11:45:32.810Z,1.55
2023-02-24T11:51:02.117Z,3.28
2023-02-24T11:56:11.396Z,4.35
2023-02-24T12:01:35.686Z,4.13
2023-02-24T12:06:52.389Z,4.65
2023-02-24T12:12:09.334Z,4.18
2023-02-24T12:17:10.897Z,4.05
2023-02-24T12:22:15.871Z,4.10
2023-02-24T12:27:46.509Z,4.72
2023-02-24T12:33:03.969Z,4.80
2023-02-24T12:38:43.390Z,3.13
2023-02-24T12:43:47.936Z,2.97
2023-02-24T12:49:21.607Z,2.15
2023-02-24T12:54:31.404Z,2.35
2023-02-24T12:59:38.220Z,3.85
2023-02-24T13:05:24.670Z,2.90
2023-02-24T13:11:05.354Z,2.00
2023-02-24T13:16:07.237Z,1.75
2023-02-24T13:21:14.865Z,1.88
2023-02-24T13:26:23.137Z,2.00
2023-02-24T13:31:26.359Z,2.35
2023-02-24T13:36:28.333Z,3.72
2023-02-24T13:41:29.941Z,2.67
2023-02-24T13:46:50.691Z,2.30
2023-02-24T13:52:20.363Z,1.10
2023-02-24T13:57:40.717Z,2.85
2023-02-24T14:07:50.173Z,1.60
2023-02-24T14:13:04.761Z,1.42
2023-02-24T14:18:06.502Z,2.40
2023-02-24T14:23:29.206Z,1.20
2023-02-24T14:28:39.270Z,1.15
2023-02-24T14:33:44.365Z,2.58
2023-02-24T14:38:46.194Z,1.73
2023-02-24T14:43:47.939Z,1.67
2023-02-24T14:48:56.077Z,1.30
2023-02-24T14:54:02.888Z,1.08
2023-02-24T14:59:15.028Z,2.85
2023-02-24T15:04:37.113Z,1.27
2023-02-24T15:09:43.108Z,1.27
2023-02-24T15:14:51.088Z,1.80
2023-02-24T15:19:55.782Z,2.40
2023-02-24T15:25:15.781Z,1.45
2023-02-24T15:30:38.852Z,1.13
2023-02-24T15:35:48.580Z,1.95
2023-02-24T15:40:55.792Z,2.17
2023-02-24T15:45:57.518Z,2.05
2023-02-24T15:51:05.667Z,1.35
2023-02-24T15:56:07.345Z,2.25
2023-02-24T16:01:11.459Z,2.78
2023-02-24T16:06:19.920Z,2.67
2023-02-24T16:11:26.677Z,2.17
2023-02-24T16:16:28.624Z,2.33
2023-02-24T16:21:30.332Z,2.55
2023-02-24T16:26:36.160Z,1.83
2023-02-24T16:31:39.123Z,2.30
2023-02-24T16:36:42.503Z,2.65
2023-02-24T16:41:47.076Z,1.08
2023-02-24T16:46:49.307Z,1.52
2023-02-24T16:51:50.949Z,2.38
2023-02-24T16:56:52.746Z,2.97
2023-02-24T17:01:54.748Z,2.33
2023-02-24T17:06:56.672Z,2.47
2023-02-24T17:11:58.349Z,3.50
2023-02-24T17:17:00.156Z,3.03
2023-02-24T17:22:01.845Z,1.38
2023-02-24T17:27:04.541Z,1.17
2023-02-24T17:32:06.533Z,1.83
2023-02-24T17:37:08.325Z,2.83
2023-02-24T17:42:09.984Z,2.38
2023-02-24T17:47:12.282Z,2.92
2023-02-24T17:52:13.932Z,4.22
2023-02-24T17:57:15.801Z,4.00
2023-02-24T18:02:17.992Z,3.53
2023-02-24T18:07:21.126Z,5.22
2023-02-24T18:12:24.714Z,3.47
2023-02-24T18:17:26.408Z,3.60
2023-02-24T18:22:28.030Z,4.53
2023-02-24T18:27:29.718Z,3.03
2023-02-24T18:32:31.501Z,3.05
2023-02-24T18:37:34.004Z,3.50
2023-02-24T18:42:35.605Z,2.45
2023-02-24T18:47:37.357Z,2.95
2023-02-24T18:52:39.172Z,3.15
2023-02-24T18:57:41.118Z,2.20
2023-02-24T19:02:42.868Z,3.30
2023-02-24T19:07:44.657Z,4.40
2023-02-24T19:12:47.266Z,4.13
2023-02-24T19:17:49.042Z,4.32
2023-02-24T19:22:51.762Z,3.78
2023-02-24T19:27:54.109Z,4.25
2023-02-24T19:32:55.878Z,2.00
2023-02-24T19:37:57.668Z,2.17
2023-02-24T19:42:59.288Z,3.15
2023-02-24T19:48:00.952Z,3.65
2023-02-24T19:53:02.585Z,4.50
2023-02-24T19:58:04.250Z,3.90
2023-02-24T20:03:06.031Z,3.33
2023-02-24T20:08:07.714Z,2.65
2023-02-24T20:13:09.360Z,2.38
2023-02-24T20:18:11.301Z,3.00
2023-02-24T20:23:13.006Z,2.63
2023-02-24T20:28:14.606Z,2.65
2023-02-24T20:33:19.268Z,1.80
2023-02-24T20:38:22.043Z,5.50
2023-02-24T20:43:23.878Z,3.38
2023-02-24T20:48:26.305Z,3.47
2023-02-24T20:53:27.932Z,3.50
2023-02-24T20:58:29.647Z,2.97
2023-02-24T21:03:32.391Z,2.83
2023-02-24T21:08:35.013Z,2.60
2023-02-24T21:13:41.052Z,3.03
2023-02-24T21:18:44.813Z,1.65
2023-02-24T21:23:47.196Z,1.80
2023-02-24T21:28:56.207Z,1.80
2023-02-24T21:33:59.105Z,2.30
2023-02-24T21:39:01.012Z,2.08
2023-02-24T21:44:02.663Z,2.55
2023-02-24T21:49:04.535Z,1.92
2023-02-24T21:54:08.837Z,2.47
2023-02-24T21:59:11.285Z,1.58
2023-02-24T22:04:16.169Z,1.80
2023-02-24T22:09:19.418Z,1.73
2023-02-24T22:14:21.760Z,1.98
2023-02-24T22:19:23.878Z,2.65
2023-02-24T22:24:25.473Z,2.40
2023-02-24T22:29:27.132Z,2.70
2023-02-24T22:34:28.780Z,3.42
2023-02-24T22:39:30.481Z,2.60
2023-02-24T22:44:32.073Z,1.88
2023-02-24T22:49:33.723Z,2.08
2023-02-24T22:54:35.516Z,2.80
2023-02-24T22:59:37.076Z,1.95
2023-02-24T23:04:38.982Z,2.63
2023-02-24T23:09:40.575Z,1.08
2023-02-24T23:14:42.322Z,2.63
2023-02-24T23:19:43.995Z,3.50
2023-02-24T23:24:45.659Z,2.95
2023-02-24T23:29:47.255Z,4.13
2023-02-24T23:34:48.877Z,3.88
2023-02-24T23:39:50.678Z,3.78
2023-02-24T23:44:52.759Z,2.22
2023-02-24T23:49:54.408Z,2.22
2023-02-24T23:54:55.988Z,2.40
2023-02-24T23:59:58.920Z,2.47
